createdAt,value
2018-06-12T00:00:10.332Z,96278.30
2018-06-12T00:05:05.013Z,96274.52
2018-06-12T00:09:59.489Z,96256.30
2018-06-12T00:14:53.972Z,96269.65
2018-06-12T00:19:48.458Z,96282.58
2018-06-12T00:24:43.009Z,96296.98
2018-06-12T00:29:37.502Z,96287.45
2018-06-12T00:34:31.996Z,96292.48
2018-06-12T00:39:26.488Z,96286.84
2018-06-12T00:44:20.936Z,96289.24
2018-06-12T00:49:15.387Z,96290.60
2018-06-12T00:54:09.849Z,96284.52
2018-06-12T00:59:04.467Z,96283.47
2018-06-12T01:03:58.977Z,96281.92
2018-06-12T01:08:53.468Z,96283.47
2018-06-12T01:13:47.939Z,96286.39
2018-06-12T01:18:42.437Z,96295.42
2018-06-12T01:23:36.880Z,96303.91
2018-06-12T01:28:31.304Z,96302.58
2018-06-12T01:33:25.752Z,96298.59
2018-06-12T01:38:20.252Z,96310.48
2018-06-12T01:43:14.745Z,96313.95
2018-06-12T01:48:09.161Z,96310.36
2018-06-12T01:53:03.701Z,96309.29
2018-06-12T01:57:58.096Z,96302.36
2018-06-12T02:02:52.501Z,96293.39
2018-06-12T02:07:46.938Z,96301.36
2018-06-12T02:12:45.347Z,96297.95
2018-06-12T02:17:39.778Z,96303.20
2018-06-12T02:22:34.193Z,96300.77
2018-06-12T02:27:28.625Z,96297.11
2018-06-12T02:32:23.084Z,96287.47
2018-06-12T02:37:17.512Z,96287.17
2018-06-12T02:42:12.005Z,96284.97
2018-06-12T02:47:06.421Z,96289.53
2018-06-12T02:52:00.901Z,96289.76
2018-06-12T02:56:55.396Z,96281.56
2018-06-12T03:01:49.863Z,96278.62
2018-06-12T03:06:44.353Z,96269.88
2018-06-12T03:11:38.793Z,96273.83
2018-06-12T03:16:33.237Z,96270.39
2018-06-12T03:21:27.651Z,96273.31
2018-06-12T03:26:22.092Z,96280.20
2018-06-12T03:31:16.491Z,96273.50
2018-06-12T03:36:10.983Z,96266.34
2018-06-12T03:41:05.532Z,96259.99
2018-06-12T03:45:59.996Z,96254.69
2018-06-12T03:50:54.453Z,96256.45
2018-06-12T03:55:48.907Z,96247.97
2018-06-12T04:00:43.389Z,96247.23
2018-06-12T04:05:37.900Z,96244.26
2018-06-12T04:10:32.338Z,96243.30
2018-06-12T04:15:26.809Z,96234.22
2018-06-12T04:20:21.290Z,96240.80
2018-06-12T04:25:15.705Z,96232.76
2018-06-12T04:30:10.140Z,96237.41
2018-06-12T04:35:04.718Z,96230.26
2018-06-12T04:39:59.235Z,96232.23
2018-06-12T04:44:53.662Z,96233.76
2018-06-12T04:49:48.092Z,96233.42
2018-06-12T04:54:42.587Z,96229.03
2018-06-12T04:59:37.026Z,96224.56
2018-06-12T05:04:31.464Z,96229.46
2018-06-12T05:09:25.952Z,96245.94
2018-06-12T05:14:20.454Z,96244.26
2018-06-12T05:19:22.692Z,96247.62
2018-06-12T05:24:17.250Z,96245.81
2018-06-12T05:29:12.058Z,96245.60
2018-06-12T05:34:15.809Z,96240.11
2018-06-12T05:39:12.071Z,96235.84
2018-06-12T05:44:06.655Z,96243.20
2018-06-12T05:49:01.338Z,96249.62
2018-06-12T05:53:55.761Z,96265.33
2018-06-12T05:58:50.176Z,96264.98
2018-06-12T06:03:44.642Z,96263.95
2018-06-12T06:08:39.084Z,96264.19
2018-06-12T06:13:33.500Z,96282.37
2018-06-12T06:18:27.953Z,96276.48
2018-06-12T06:23:22.348Z,96274.14
2018-06-12T06:28:16.745Z,96285.28
2018-06-12T06:33:11.223Z,96283.78
2018-06-12T06:38:11.747Z,96294.91
2018-06-12T06:43:06.554Z,96293.56
2018-06-12T06:48:00.988Z,96296.63
2018-06-12T06:52:55.695Z,96298.50
2018-06-12T06:57:50.184Z,96305.03
2018-06-12T07:02:45.098Z,96290.27
2018-06-12T07:07:43.676Z,96295.98
2018-06-12T07:13:01.087Z,96301.03
2018-06-12T07:17:55.556Z,96296.08
2018-06-12T07:22:50.755Z,96295.22
2018-06-12T07:27:45.217Z,96290.19
2018-06-12T07:32:39.364Z,96288.13
2018-06-12T07:37:33.823Z,96278.08
2018-06-12T07:42:28.213Z,96281.56
2018-06-12T07:47:22.696Z,96280.56
2018-06-12T07:52:17.121Z,96292.67
2018-06-12T07:57:11.589Z,96291.63
2018-06-12T08:02:06.096Z,96289.03
2018-06-12T08:07:00.732Z,96277.26
2018-06-12T08:11:55.160Z,96267.34
2018-06-12T08:16:49.704Z,96270.98
2018-06-12T08:21:44.192Z,96262.33
2018-06-12T08:26:38.681Z,96258.73
2018-06-12T08:31:32.811Z,96254.42
2018-06-12T08:36:27.371Z,96251.78
2018-06-12T08:41:21.805Z,96263.16
2018-06-12T08:46:16.200Z,96259.73
2018-06-12T08:51:10.986Z,96261.72
2018-06-12T08:56:05.444Z,96255.00
2018-06-12T09:01:00.095Z,96262.70
2018-06-12T09:05:54.766Z,96256.36
2018-06-12T09:10:50.775Z,96258.91
2018-06-12T09:15:46.077Z,96256.22
2018-06-12T09:20:40.523Z,96252.61
2018-06-12T09:25:34.944Z,96254.70
2018-06-12T09:30:32.840Z,96267.89
2018-06-12T09:35:29.316Z,96273.20
2018-06-12T09:40:26.804Z,96272.27
2018-06-12T09:45:22.553Z,96274.51
2018-06-12T09:50:19.958Z,96278.95
2018-06-12T09:55:15.002Z,96272.62
2018-06-12T10:00:09.688Z,96271.59
2018-06-12T10:05:05.041Z,96267.45
2018-06-12T10:09:59.535Z,96273.56
2018-06-12T10:15:08.976Z,96266.69
2018-06-12T10:20:03.780Z,96259.13
2018-06-12T10:24:58.788Z,96252.09
2018-06-12T10:29:53.300Z,96244.92
2018-06-12T10:34:47.700Z,96241.55
2018-06-12T10:39:42.140Z,96241.41
2018-06-12T10:44:36.876Z,96228.86
2018-06-12T10:49:31.655Z,96225.46
2018-06-12T10:54:28.335Z,96224.06
2018-06-12T10:59:22.829Z,96217.08
2018-06-12T11:04:17.967Z,96215.83
2018-06-12T11:09:12.503Z,96202.44
2018-06-12T11:14:07.458Z,96205.02
2018-06-12T11:19:05.884Z,96190.43
2018-06-12T11:24:01.342Z,96193.72
2018-06-12T11:28:58.860Z,96199.03
2018-06-12T11:33:53.798Z,96190.90
2018-06-12T11:38:48.394Z,96198.86
2018-06-12T11:43:42.949Z,96194.12
2018-06-12T11:48:37.263Z,96189.70
2018-06-12T11:53:31.735Z,96189.27
2018-06-12T11:58:26.395Z,96181.19
2018-06-12T12:03:21.079Z,96177.48
2018-06-12T12:08:15.567Z,96171.05
2018-06-12T12:13:09.986Z,96168.95
2018-06-12T12:18:05.192Z,96165.63
2018-06-12T12:23:00.028Z,96161.60
2018-06-12T12:27:54.924Z,96160.19
2018-06-12T12:32:49.349Z,96155.09
2018-06-12T12:37:45.902Z,96160.72
2018-06-12T12:42:40.476Z,96158.58
2018-06-12T12:47:35.835Z,96156.50
2018-06-12T12:52:31.188Z,96148.06
2018-06-12T12:57:25.761Z,96140.94
2018-06-12T13:02:19.915Z,96144.19
2018-06-12T13:07:14.314Z,96139.57
2018-06-12T13:12:08.872Z,96134.45
2018-06-12T13:17:22.794Z,96140.88
2018-06-12T13:22:17.408Z,96141.07
2018-06-12T13:32:41.987Z,96151.45
2018-06-12T13:37:39.108Z,96159.28
2018-06-12T13:42:36.570Z,96157.89
2018-06-12T13:47:33.267Z,96146.05
2018-06-12T13:52:29.054Z,96139.52
2018-06-12T13:57:24.150Z,96137.41
2018-06-12T14:02:26.846Z,96134.25
2018-06-12T14:07:22.476Z,96125.30
2018-06-12T14:12:24.289Z,96123.51
2018-06-12T14:17:19.370Z,96120.94
2018-06-12T14:22:23.478Z,96118.06
2018-06-12T14:27:30.875Z,96109.27
2018-06-12T14:32:30.863Z,96111.02
2018-06-12T14:37:26.555Z,96119.64
2018-06-12T14:42:24.960Z,96116.79
2018-06-12T14:47:31.389Z,96116.84
2018-06-12T14:52:29.029Z,96112.05
2018-06-12T14:57:25.765Z,96104.16
2018-06-12T15:02:45.545Z,96098.91
2018-06-12T15:13:17.248Z,96101.89
2018-06-12T15:24:02.784Z,96097.48
2018-06-12T15:29:08.600Z,96094.19
2018-06-12T15:34:14.132Z,96086.68
2018-06-12T15:39:17.911Z,96081.35
2018-06-12T15:44:13.950Z,96088.77
2018-06-12T15:49:12.311Z,96088.19
2018-06-12T15:54:08.686Z,96085.86
2018-06-12T15:59:10.568Z,96095.02
2018-06-12T16:04:09.533Z,96094.78
2018-06-12T16:09:07.610Z,96091.87
2018-06-12T16:14:05.506Z,96095.16
2018-06-12T16:19:08.157Z,96120.27
2018-06-12T16:24:04.219Z,96111.23
2018-06-12T16:28:59.887Z,96100.66
2018-06-12T16:33:54.743Z,96098.13
2018-06-12T16:38:50.022Z,96104.19
2018-06-12T16:43:44.781Z,96109.55
2018-06-12T16:48:39.438Z,96127.03
2018-06-12T16:53:33.937Z,96130.11
2018-06-12T16:58:28.486Z,96129.41
2018-06-12T17:03:23.340Z,96140.47
2018-06-12T17:08:18.162Z,96142.79
2018-06-12T17:13:12.737Z,96146.55
2018-06-12T17:18:07.652Z,96141.02
2018-06-12T17:23:02.369Z,96151.31
2018-06-12T17:27:56.797Z,96154.30
2018-06-12T17:32:51.328Z,96160.20
2018-06-12T17:37:47.417Z,96167.36
2018-06-12T17:42:42.179Z,96170.63
2018-06-12T17:47:37.191Z,96172.02
2018-06-12T17:52:32.037Z,96172.16
2018-06-12T17:57:26.540Z,96174.55
2018-06-12T18:02:21.164Z,96180.33
2018-06-12T18:07:15.785Z,96193.67
2018-06-12T18:12:10.400Z,96203.34
2018-06-12T18:17:05.207Z,96212.61
2018-06-12T18:21:59.832Z,96226.89
2018-06-12T18:26:54.273Z,96235.17
2018-06-12T18:31:48.797Z,96228.78
2018-06-12T18:36:43.291Z,96234.48
2018-06-12T18:41:37.868Z,96240.55
2018-06-12T18:46:32.386Z,96238.42
2018-06-12T18:51:26.812Z,96252.49
2018-06-12T18:56:22.092Z,96233.47
2018-06-12T19:01:16.499Z,96239.11
2018-06-12T19:06:10.989Z,96222.77
2018-06-12T19:11:05.503Z,96216.72
2018-06-12T19:15:59.952Z,96214.16
2018-06-12T19:20:54.391Z,96214.98
2018-06-12T19:25:48.840Z,96219.16
2018-06-12T19:30:43.240Z,96220.60
2018-06-12T19:35:37.665Z,96221.77
2018-06-12T19:40:32.177Z,96220.02
2018-06-12T19:45:26.609Z,96218.79
2018-06-12T19:50:21.085Z,96214.20
2018-06-12T19:55:15.561Z,96213.39
2018-06-12T20:00:10.036Z,96223.72
2018-06-12T20:05:04.320Z,96230.41
2018-06-12T20:09:58.448Z,96234.91
2018-06-12T20:14:52.872Z,96234.07
2018-06-12T20:19:47.386Z,96242.80
2018-06-12T20:24:43.358Z,96247.25
2018-06-12T20:29:38.030Z,96249.13
2018-06-12T20:34:32.624Z,96243.06
2018-06-12T20:39:27.168Z,96240.41
2018-06-12T20:44:21.670Z,96243.41
2018-06-12T20:49:17.224Z,96242.09
2018-06-12T20:54:11.740Z,96241.48
2018-06-12T20:59:06.262Z,96237.24
2018-06-12T21:04:00.725Z,96226.11
2018-06-12T21:08:55.223Z,96225.20
2018-06-12T21:13:49.637Z,96226.27
2018-06-12T21:18:44.169Z,96225.47
2018-06-12T21:23:38.715Z,96225.63
2018-06-12T21:28:33.357Z,96223.45
2018-06-12T21:33:28.049Z,96224.27
2018-06-12T21:38:22.674Z,96220.28
2018-06-12T21:43:17.199Z,96221.65
2018-06-12T21:48:15.546Z,96222.94
2018-06-12T21:53:10.193Z,96219.02
2018-06-12T21:58:04.660Z,96218.25
2018-06-12T22:02:59.197Z,96218.31
2018-06-12T22:07:54.209Z,96217.21
2018-06-12T22:12:48.665Z,96210.61
2018-06-12T22:17:51.129Z,96211.32
2018-06-12T22:22:45.628Z,96217.56
2018-06-12T22:27:40.081Z,96214.06
2018-06-12T22:32:34.500Z,96214.55
2018-06-12T22:37:28.949Z,96218.97
2018-06-12T22:42:23.399Z,96213.79
2018-06-12T22:47:17.833Z,96210.85
2018-06-12T22:52:12.228Z,96206.61
2018-06-12T22:57:06.985Z,96209.80
2018-06-12T23:02:01.119Z,96214.34
2018-06-12T23:06:55.565Z,96209.03
2018-06-12T23:11:49.997Z,96212.13
2018-06-12T23:16:44.443Z,96207.25
2018-06-12T23:21:55.805Z,96197.21
2018-06-12T23:26:50.200Z,96198.56
2018-06-12T23:31:44.628Z,96193.27
2018-06-12T23:36:39.019Z,96187.47
2018-06-12T23:41:33.434Z,96184.87
2018-06-12T23:46:27.876Z,96179.54
2018-06-12T23:51:22.376Z,96179.85
2018-06-12T23:56:16.800Z,96187.10
